sensor_id;sensor_type;location;lat;lon;timestamp;pressure;altitude;pressure_sealevel;temperature;humidity
75424;BME280;64005;55.160;36.002;2023-06-10T00:01:45;99412.22;;;12.61;64.80
75424;BME280;64005;55.160;36.002;2023-06-10T00:06:51;99308.94;;;11.99;64.74
75424;BME280;64005;55.160;36.002;2023-06-10T00:09:20;99447.00;;;12.84;64.48
75424;BME280;64005;55.160;36.002;2023-06-10T00:11:48;99436.66;;;12.85;64.71
75424;BME280;64005;55.160;36.002;2023-06-10T00:14:16;99419.63;;;12.78;64.64
75424;BME280;64005;55.160;36.002;2023-06-10T00:16:43;99441.09;;;12.86;64.03
75424;BME280;64005;55.160;36.002;2023-06-10T00:19:11;99437.38;;;12.82;64.11
75424;BME280;64005;55.160;36.002;2023-06-10T00:21:41;99442.25;;;12.85;63.59
75424;BME280;64005;55.160;36.002;2023-06-10T00:24:11;99434.22;;;12.83;63.72
75424;BME280;64005;55.160;36.002;2023-06-10T00:26:39;99447.16;;;12.88;63.90
75424;BME280;64005;55.160;36.002;2023-06-10T00:29:07;99451.13;;;12.87;63.68
75424;BME280;64005;55.160;36.002;2023-06-10T00:31:36;99467.88;;;12.87;63.01
75424;BME280;64005;55.160;36.002;2023-06-10T00:34:04;99463.09;;;12.87;62.80
75424;BME280;64005;55.160;36.002;2023-06-10T00:36:31;99459.97;;;12.89;62.86
75424;BME280;64005;55.160;36.002;2023-06-10T00:38:59;99461.47;;;12.86;63.11
75424;BME280;64005;55.160;36.002;2023-06-10T00:41:28;99461.19;;;12.79;62.53
75424;BME280;64005;55.160;36.002;2023-06-10T00:43:56;99455.19;;;12.68;63.08
75424;BME280;64005;55.160;36.002;2023-06-10T00:46:24;99463.28;;;12.61;63.14
75424;BME280;64005;55.160;36.002;2023-06-10T00:48:52;99473.34;;;12.54;63.12
75424;BME280;64005;55.160;36.002;2023-06-10T00:51:20;99470.56;;;12.54;62.81
75424;BME280;64005;55.160;36.002;2023-06-10T00:53:48;99479.41;;;12.56;62.88
75424;BME280;64005;55.160;36.002;2023-06-10T00:56:16;99483.81;;;12.57;62.49
75424;BME280;64005;55.160;36.002;2023-06-10T00:58:45;99485.63;;;12.61;62.74
75424;BME280;64005;55.160;36.002;2023-06-10T01:01:15;99491.66;;;12.63;62.02
75424;BME280;64005;55.160;36.002;2023-06-10T01:03:42;99501.22;;;12.62;62.69
75424;BME280;64005;55.160;36.002;2023-06-10T01:06:27;99495.97;;;12.61;62.40
75424;BME280;64005;55.160;36.002;2023-06-10T01:29:35;99423.53;;;11.76;62.10
75424;BME280;64005;55.160;36.002;2023-06-10T01:32:09;99524.97;;;12.39;61.88
75424;BME280;64005;55.160;36.002;2023-06-10T01:47:37;99537.16;;;12.26;62.05
75424;BME280;64005;55.160;36.002;2023-06-10T03:23:31;99603.16;;;13.69;60.10
75424;BME280;64005;55.160;36.002;2023-06-10T03:26:00;99578.00;;;14.02;59.58
75424;BME280;64005;55.160;36.002;2023-06-10T03:28:28;99604.84;;;14.60;58.47
75424;BME280;64005;55.160;36.002;2023-06-10T03:30:56;99587.00;;;14.77;57.79
75424;BME280;64005;55.160;36.002;2023-06-10T03:33:24;99578.78;;;15.32;56.73
75424;BME280;64005;55.160;36.002;2023-06-10T03:35:52;99619.28;;;15.99;55.14
75424;BME280;64005;55.160;36.002;2023-06-10T03:38:19;99625.28;;;15.85;55.11
75424;BME280;64005;55.160;36.002;2023-06-10T03:40:48;99632.25;;;15.64;55.12
75424;BME280;64005;55.160;36.002;2023-06-10T03:43:16;99626.44;;;15.32;55.68
75424;BME280;64005;55.160;36.002;2023-06-10T03:45:43;99619.31;;;15.23;55.83
75424;BME280;64005;55.160;36.002;2023-06-10T03:48:11;99610.59;;;15.00;56.09
75424;BME280;64005;55.160;36.002;2023-06-10T03:50:38;99619.81;;;14.88;56.35
75424;BME280;64005;55.160;36.002;2023-06-10T03:53:05;99623.31;;;14.85;56.32
75424;BME280;64005;55.160;36.002;2023-06-10T03:55:33;99633.72;;;15.09;56.12
75424;BME280;64005;55.160;36.002;2023-06-10T03:58:02;99631.94;;;15.17;55.77
75424;BME280;64005;55.160;36.002;2023-06-10T04:00:29;99638.34;;;15.29;55.18
75424;BME280;64005;55.160;36.002;2023-06-10T04:03:07;99634.28;;;15.27;55.03
75424;BME280;64005;55.160;36.002;2023-06-10T04:05:35;99618.88;;;15.21;55.27
75424;BME280;64005;55.160;36.002;2023-06-10T04:08:03;99625.63;;;15.32;55.29
75424;BME280;64005;55.160;36.002;2023-06-10T04:10:31;99636.50;;;15.33;55.00
75424;BME280;64005;55.160;36.002;2023-06-10T04:12:58;99629.25;;;15.32;55.01
75424;BME280;64005;55.160;36.002;2023-06-10T04:15:27;99631.78;;;15.37;54.91
75424;BME280;64005;55.160;36.002;2023-06-10T04:26:08;99610.41;;;15.45;54.97
75424;BME280;64005;55.160;36.002;2023-06-10T04:59:41;99652.38;;;15.05;54.60
75424;BME280;64005;55.160;36.002;2023-06-10T05:29:10;99633.22;;;15.31;52.52
75424;BME280;64005;55.160;36.002;2023-06-10T05:31:38;99658.78;;;15.66;52.38
75424;BME280;64005;55.160;36.002;2023-06-10T05:34:24;99669.25;;;15.81;51.57
75424;BME280;64005;55.160;36.002;2023-06-10T05:36:52;99663.44;;;15.74;51.28
75424;BME280;64005;55.160;36.002;2023-06-10T05:39:19;99669.81;;;15.87;51.20
75424;BME280;64005;55.160;36.002;2023-06-10T05:41:47;99674.22;;;16.00;51.18
75424;BME280;64005;55.160;36.002;2023-06-10T05:44:15;99673.72;;;16.10;51.33
75424;BME280;64005;55.160;36.002;2023-06-10T05:49:16;99678.84;;;16.36;50.84
75424;BME280;64005;55.160;36.002;2023-06-10T05:51:43;99672.81;;;16.50;51.10
75424;BME280;64005;55.160;36.002;2023-06-10T05:54:11;99673.84;;;16.57;50.69
75424;BME280;64005;55.160;36.002;2023-06-10T05:56:38;99662.75;;;16.61;50.65
75424;BME280;64005;55.160;36.002;2023-06-10T05:59:06;99679.31;;;16.66;50.32
75424;BME280;64005;55.160;36.002;2023-06-10T06:04:55;99678.16;;;16.67;49.57
75424;BME280;64005;55.160;36.002;2023-06-10T06:13:39;99685.03;;;16.69;48.65
75424;BME280;64005;55.160;36.002;2023-06-10T06:16:07;99678.03;;;16.63;48.79
75424;BME280;64005;55.160;36.002;2023-06-10T07:05:26;99661.31;;;16.67;45.62
75424;BME280;64005;55.160;36.002;2023-06-10T07:07:54;99697.94;;;17.02;45.31
75424;BME280;64005;55.160;36.002;2023-06-10T07:10:22;99712.44;;;17.35;43.40
75424;BME280;64005;55.160;36.002;2023-06-10T07:12:50;99715.16;;;17.47;41.36
75424;BME280;64005;55.160;36.002;2023-06-10T07:15:18;99713.91;;;17.61;41.54
75424;BME280;64005;55.160;36.002;2023-06-10T07:17:45;99717.69;;;18.03;41.13
75424;BME280;64005;55.160;36.002;2023-06-10T07:20:13;99717.25;;;18.20;40.79
75424;BME280;64005;55.160;36.002;2023-06-10T07:22:42;99726.13;;;18.22;40.57
75424;BME280;64005;55.160;36.002;2023-06-10T07:25:10;99722.44;;;17.99;41.32
75424;BME280;64005;55.160;36.002;2023-06-10T07:27:38;99718.00;;;17.82;41.14
75424;BME280;64005;55.160;36.002;2023-06-10T07:37:52;99728.56;;;18.59;40.13
75424;BME280;64005;55.160;36.002;2023-06-10T07:40:20;99730.00;;;18.53;40.04
75424;BME280;64005;55.160;36.002;2023-06-10T07:42:48;99732.81;;;18.14;40.20
75424;BME280;64005;55.160;36.002;2023-06-10T07:45:16;99735.28;;;17.81;40.60
75424;BME280;64005;55.160;36.002;2023-06-10T07:47:43;99747.25;;;17.78;41.21
75424;BME280;64005;55.160;36.002;2023-06-10T07:50:11;99739.06;;;17.88;41.24
75424;BME280;64005;55.160;36.002;2023-06-10T07:52:38;99736.59;;;18.22;40.57
75424;BME280;64005;55.160;36.002;2023-06-10T07:55:08;99740.66;;;18.59;40.08
75424;BME280;64005;55.160;36.002;2023-06-10T07:57:35;99741.06;;;18.61;40.10
75424;BME280;64005;55.160;36.002;2023-06-10T08:00:06;99744.75;;;18.85;39.62
75424;BME280;64005;55.160;36.002;2023-06-10T08:02:34;99744.88;;;19.34;38.96
75424;BME280;64005;55.160;36.002;2023-06-10T08:05:01;99738.41;;;19.56;38.40
75424;BME280;64005;55.160;36.002;2023-06-10T08:07:29;99741.53;;;19.51;39.03
75424;BME280;64005;55.160;36.002;2023-06-10T08:09:57;99752.63;;;19.63;38.15
75424;BME280;64005;55.160;36.002;2023-06-10T08:12:26;99741.50;;;19.48;37.54
75424;BME280;64005;55.160;36.002;2023-06-10T08:14:54;99748.81;;;19.07;38.18
75424;BME280;64005;55.160;36.002;2023-06-10T08:17:22;99737.25;;;19.38;38.12
75424;BME280;64005;55.160;36.002;2023-06-10T08:19:49;99756.13;;;19.79;37.60
75424;BME280;64005;55.160;36.002;2023-06-10T08:22:16;99755.66;;;20.30;37.32
75424;BME280;64005;55.160;36.002;2023-06-10T08:24:44;99765.66;;;20.24;36.98
75424;BME280;64005;55.160;36.002;2023-06-10T08:27:11;99774.84;;;19.65;37.71
75424;BME280;64005;55.160;36.002;2023-06-10T08:29:40;99764.94;;;18.87;38.59
75424;BME280;64005;55.160;36.002;2023-06-10T09:38:22;99732.84;;;19.86;36.20
75424;BME280;64005;55.160;36.002;2023-06-10T09:44:51;99772.66;;;20.97;35.51
75424;BME280;64005;55.160;36.002;2023-06-10T10:48:39;99780.69;;;18.88;36.60
75424;BME280;64005;55.160;36.002;2023-06-10T10:51:08;99751.97;;;18.63;36.50
75424;BME280;64005;55.160;36.002;2023-06-10T10:53:37;99769.16;;;18.77;36.37
75424;BME280;64005;55.160;36.002;2023-06-10T10:56:06;99767.38;;;19.08;36.00
75424;BME280;64005;55.160;36.002;2023-06-10T10:58:34;99786.09;;;19.42;35.60
75424;BME280;64005;55.160;36.002;2023-06-10T11:01:11;99773.56;;;19.62;35.25
75424;BME280;64005;55.160;36.002;2023-06-10T11:03:46;99774.25;;;19.78;34.85
75424;BME280;64005;55.160;36.002;2023-06-10T11:06:15;99775.78;;;19.99;34.20
75424;BME280;64005;55.160;36.002;2023-06-10T11:08:46;99776.94;;;19.94;34.20
75424;BME280;64005;55.160;36.002;2023-06-10T11:11:19;99786.25;;;20.24;34.14
75424;BME280;64005;55.160;36.002;2023-06-10T11:13:58;99780.59;;;20.24;33.82
75424;BME280;64005;55.160;36.002;2023-06-10T11:16:28;99775.94;;;20.09;34.19
75424;BME280;64005;55.160;36.002;2023-06-10T11:18:57;99784.50;;;20.16;34.23
75424;BME280;64005;55.160;36.002;2023-06-10T11:21:24;99776.50;;;20.22;33.87
75424;BME280;64005;55.160;36.002;2023-06-10T11:23:52;99784.19;;;19.95;34.31
75424;BME280;64005;55.160;36.002;2023-06-10T11:26:31;99769.56;;;19.40;34.81
75424;BME280;64005;55.160;36.002;2023-06-10T11:29:07;99785.22;;;19.15;35.08
75424;BME280;64005;55.160;36.002;2023-06-10T11:31:50;99789.66;;;18.93;35.28
75424;BME280;64005;55.160;36.002;2023-06-10T11:34:23;99779.81;;;19.07;34.55
75424;BME280;64005;55.160;36.002;2023-06-10T11:36:53;99785.97;;;19.54;34.24
75424;BME280;64005;55.160;36.002;2023-06-10T11:39:22;99770.47;;;19.94;34.16
75424;BME280;64005;55.160;36.002;2023-06-10T13:24:55;99800.47;;;18.72;32.53
75424;BME280;64005;55.160;36.002;2023-06-10T13:53:18;99790.09;;;18.57;32.45
75424;BME280;64005;55.160;36.002;2023-06-10T13:56:21;99791.56;;;18.70;32.75
75424;BME280;64005;55.160;36.002;2023-06-10T14:02:30;99795.63;;;19.11;32.46
75424;BME280;64005;55.160;36.002;2023-06-10T14:07:33;99798.13;;;18.74;32.77
75424;BME280;64005;55.160;36.002;2023-06-10T14:10:02;99803.56;;;18.48;33.13
75424;BME280;64005;55.160;36.002;2023-06-10T14:26:02;99796.34;;;18.31;32.65
75424;BME280;64005;55.160;36.002;2023-06-10T14:28:58;99805.91;;;18.26;32.10
75424;BME280;64005;55.160;36.002;2023-06-10T14:34:01;99771.66;;;18.24;32.17
75424;BME280;64005;55.160;36.002;2023-06-10T14:36:29;99797.13;;;18.47;32.36
75424;BME280;64005;55.160;36.002;2023-06-10T14:38:56;99815.44;;;18.57;32.34
75424;BME280;64005;55.160;36.002;2023-06-10T15:09:53;99821.09;;;18.57;33.23
75424;BME280;64005;55.160;36.002;2023-06-10T16:49:07;99909.31;;;17.79;33.41
75424;BME280;64005;55.160;36.002;2023-06-10T17:07:42;99923.75;;;15.93;36.59
75424;BME280;64005;55.160;36.002;2023-06-10T17:10:11;99921.50;;;15.62;37.47
75424;BME280;64005;55.160;36.002;2023-06-10T17:12:39;99914.38;;;15.44;37.78
75424;BME280;64005;55.160;36.002;2023-06-10T17:15:08;99915.84;;;15.29;37.78
75424;BME280;64005;55.160;36.002;2023-06-10T17:17:35;99918.50;;;15.14;38.17
75424;BME280;64005;55.160;36.002;2023-06-10T17:20:04;99915.03;;;14.96;38.98
75424;BME280;64005;55.160;36.002;2023-06-10T17:22:32;99915.66;;;14.81;39.23
75424;BME280;64005;55.160;36.002;2023-06-10T17:25:02;99922.03;;;14.69;39.56
75424;BME280;64005;55.160;36.002;2023-06-10T17:27:30;99935.81;;;14.53;39.94
75424;BME280;64005;55.160;36.002;2023-06-10T17:29:58;99936.53;;;14.42;40.22
75424;BME280;64005;55.160;36.002;2023-06-10T17:32:25;99935.41;;;14.34;40.29
75424;BME280;64005;55.160;36.002;2023-06-10T17:34:55;99941.53;;;14.27;40.33
75424;BME280;64005;55.160;36.002;2023-06-10T17:37:26;99930.88;;;14.21;40.66
75424;BME280;64005;55.160;36.002;2023-06-10T17:39:53;99935.19;;;14.10;41.16
75424;BME280;64005;55.160;36.002;2023-06-10T17:42:23;99941.19;;;14.00;41.62
75424;BME280;64005;55.160;36.002;2023-06-10T17:44:52;99950.75;;;13.90;41.91
75424;BME280;64005;55.160;36.002;2023-06-10T17:47:19;99950.81;;;13.81;41.92
75424;BME280;64005;55.160;36.002;2023-06-10T17:49:48;99960.19;;;13.77;42.03
75424;BME280;64005;55.160;36.002;2023-06-10T17:52:15;99956.94;;;13.66;42.07
75424;BME280;64005;55.160;36.002;2023-06-10T17:54:44;99954.50;;;13.56;42.71
75424;BME280;64005;55.160;36.002;2023-06-10T17:57:11;99954.19;;;13.49;43.02
75424;BME280;64005;55.160;36.002;2023-06-10T17:59:40;99957.00;;;13.40;43.09
75424;BME280;64005;55.160;36.002;2023-06-10T18:02:08;99966.72;;;13.34;43.12
75424;BME280;64005;55.160;36.002;2023-06-10T18:04:35;99961.13;;;13.26;43.63
75424;BME280;64005;55.160;36.002;2023-06-10T18:07:04;99854.84;;;12.45;43.66
75424;BME280;64005;55.160;36.002;2023-06-10T18:09:32;99965.75;;;13.13;43.82
75424;BME280;64005;55.160;36.002;2023-06-10T18:12:00;99976.56;;;13.06;43.79
75424;BME280;64005;55.160;36.002;2023-06-10T18:14:27;99969.34;;;12.96;44.15
75424;BME280;64005;55.160;36.002;2023-06-10T18:16:56;99975.56;;;12.93;43.92
75424;BME280;64005;55.160;36.002;2023-06-10T18:19:23;99976.88;;;12.87;44.24
75424;BME280;64005;55.160;36.002;2023-06-10T18:21:51;99979.03;;;12.82;44.83
75424;BME280;64005;55.160;36.002;2023-06-10T18:24:18;99981.47;;;12.74;44.84
75424;BME280;64005;55.160;36.002;2023-06-10T18:26:47;100002.81;;;12.70;44.83
75424;BME280;64005;55.160;36.002;2023-06-10T18:29:15;99993.75;;;12.65;45.30
75424;BME280;64005;55.160;36.002;2023-06-10T18:31:42;100000.34;;;12.60;45.09
75424;BME280;64005;55.160;36.002;2023-06-10T18:34:11;99993.06;;;12.51;45.41
75424;BME280;64005;55.160;36.002;2023-06-10T18:36:38;99996.22;;;12.49;45.62
75424;BME280;64005;55.160;36.002;2023-06-10T18:39:06;100001.94;;;12.44;45.43
75424;BME280;64005;55.160;36.002;2023-06-10T18:41:33;100000.44;;;12.38;45.65
75424;BME280;64005;55.160;36.002;2023-06-10T18:44:01;100004.72;;;12.36;45.63
75424;BME280;64005;55.160;36.002;2023-06-10T18:46:28;100010.41;;;12.30;46.00
75424;BME280;64005;55.160;36.002;2023-06-10T18:48:56;99998.59;;;12.25;45.51
75424;BME280;64005;55.160;36.002;2023-06-10T18:51:25;100009.06;;;12.19;45.91
75424;BME280;64005;55.160;36.002;2023-06-10T18:53:53;100018.72;;;12.13;46.25
75424;BME280;64005;55.160;36.002;2023-06-10T18:56:25;100011.97;;;12.06;46.46
75424;BME280;64005;55.160;36.002;2023-06-10T18:59:01;100020.78;;;11.99;46.47
75424;BME280;64005;55.160;36.002;2023-06-10T19:01:29;100009.28;;;11.92;46.31
75424;BME280;64005;55.160;36.002;2023-06-10T19:03:56;100013.66;;;11.84;46.55
75424;BME280;64005;55.160;36.002;2023-06-10T19:06:25;100012.25;;;11.73;46.68
75424;BME280;64005;55.160;36.002;2023-06-10T19:08:54;100024.38;;;11.69;46.69
75424;BME280;64005;55.160;36.002;2023-06-10T19:11:22;100027.94;;;11.61;47.31
75424;BME280;64005;55.160;36.002;2023-06-10T19:13:49;100027.03;;;11.51;47.60
75424;BME280;64005;55.160;36.002;2023-06-10T19:16:19;100025.84;;;11.44;47.38
75424;BME280;64005;55.160;36.002;2023-06-10T19:18:46;100034.16;;;11.35;47.68
75424;BME280;64005;55.160;36.002;2023-06-10T19:21:14;100032.13;;;11.27;48.32
75424;BME280;64005;55.160;36.002;2023-06-10T19:23:44;100041.72;;;11.21;48.46
75424;BME280;64005;55.160;36.002;2023-06-10T19:26:24;100029.94;;;11.02;48.69
75424;BME280;64005;55.160;36.002;2023-06-10T19:29:03;100047.56;;;10.97;49.49
75424;BME280;64005;55.160;36.002;2023-06-10T19:31:31;100047.28;;;10.85;49.72
75424;BME280;64005;55.160;36.002;2023-06-10T19:33:58;100047.66;;;10.70;50.48
75424;BME280;64005;55.160;36.002;2023-06-10T19:36:25;100044.25;;;10.59;50.96
75424;BME280;64005;55.160;36.002;2023-06-10T19:38:54;100047.88;;;10.46;51.26
75424;BME280;64005;55.160;36.002;2023-06-10T19:41:24;100047.25;;;10.35;51.42
75424;BME280;64005;55.160;36.002;2023-06-10T19:43:53;100052.41;;;10.28;51.87
75424;BME280;64005;55.160;36.002;2023-06-10T19:46:20;100062.06;;;10.17;52.47
75424;BME280;64005;55.160;36.002;2023-06-10T19:48:48;100054.72;;;10.08;52.67
75424;BME280;64005;55.160;36.002;2023-06-10T19:51:16;100051.00;;;9.98;52.71
75424;BME280;64005;55.160;36.002;2023-06-10T19:53:44;100059.44;;;9.93;52.95
75424;BME280;64005;55.160;36.002;2023-06-10T19:56:13;100058.81;;;9.83;53.38
75424;BME280;64005;55.160;36.002;2023-06-10T19:58:45;100068.13;;;9.73;53.77
75424;BME280;64005;55.160;36.002;2023-06-10T20:01:13;100056.47;;;9.57;54.27
75424;BME280;64005;55.160;36.002;2023-06-10T20:03:40;100074.28;;;9.56;54.65
75424;BME280;64005;55.160;36.002;2023-06-10T20:06:08;100075.78;;;9.49;54.68
75424;BME280;64005;55.160;36.002;2023-06-10T20:08:35;100078.94;;;9.42;55.38
75424;BME280;64005;55.160;36.002;2023-06-10T20:11:02;100077.69;;;9.35;55.51
75424;BME280;64005;55.160;36.002;2023-06-10T20:13:31;100081.13;;;9.27;56.05
75424;BME280;64005;55.160;36.002;2023-06-10T20:15:59;100077.09;;;9.19;56.41
75424;BME280;64005;55.160;36.002;2023-06-10T20:24:21;100078.28;;;8.94;56.92
75424;BME280;64005;55.160;36.002;2023-06-10T20:26:48;100096.88;;;8.94;57.21
75424;BME280;64005;55.160;36.002;2023-06-10T20:29:17;100092.75;;;8.91;57.46
75424;BME280;64005;55.160;36.002;2023-06-10T20:31:45;100082.56;;;8.87;57.61
75424;BME280;64005;55.160;36.002;2023-06-10T20:34:13;100092.53;;;8.88;57.51
75424;BME280;64005;55.160;36.002;2023-06-10T20:36:41;100086.16;;;8.87;57.70
75424;BME280;64005;55.160;36.002;2023-06-10T20:44:21;100005.19;;;8.19;57.64
75424;BME280;64005;55.160;36.002;2023-06-10T20:46:49;99985.03;;;8.13;57.58
75424;BME280;64005;55.160;36.002;2023-06-10T20:49:17;100032.19;;;8.37;57.73
75424;BME280;64005;55.160;36.002;2023-06-10T20:51:45;100089.50;;;8.65;58.21
75424;BME280;64005;55.160;36.002;2023-06-10T20:54:13;100092.25;;;8.65;58.26
75424;BME280;64005;55.160;36.002;2023-06-10T20:59:15;100106.75;;;8.62;59.06
75424;BME280;64005;55.160;36.002;2023-06-10T21:01:44;100098.53;;;8.52;59.19
75424;BME280;64005;55.160;36.002;2023-06-10T21:04:12;100105.81;;;8.48;59.04
75424;BME280;64005;55.160;36.002;2023-06-10T21:06:39;100115.50;;;8.51;59.05
75424;BME280;64005;55.160;36.002;2023-06-10T21:09:07;100113.28;;;8.48;59.70
75424;BME280;64005;55.160;36.002;2023-06-10T21:11:34;100123.00;;;8.45;59.66
75424;BME280;64005;55.160;36.002;2023-06-10T21:14:02;100112.75;;;8.46;59.65
75424;BME280;64005;55.160;36.002;2023-06-10T21:16:30;100114.41;;;8.47;59.48
75424;BME280;64005;55.160;36.002;2023-06-10T21:19:01;100116.91;;;8.48;59.55
75424;BME280;64005;55.160;36.002;2023-06-10T21:21:29;100042.84;;;8.01;59.30
75424;BME280;64005;55.160;36.002;2023-06-10T21:23:57;100121.53;;;8.53;59.02
75424;BME280;64005;55.160;36.002;2023-06-10T21:26:26;100116.00;;;8.53;59.22
75424;BME280;64005;55.160;36.002;2023-06-10T21:28:54;100122.63;;;8.57;59.02
75424;BME280;64005;55.160;36.002;2023-06-10T21:31:21;100124.78;;;8.60;59.24
75424;BME280;64005;55.160;36.002;2023-06-10T21:33:50;100125.88;;;8.64;58.99
75424;BME280;64005;55.160;36.002;2023-06-10T21:36:19;100123.31;;;8.67;58.60
75424;BME280;64005;55.160;36.002;2023-06-10T21:38:47;100124.06;;;8.73;58.43
75424;BME280;64005;55.160;36.002;2023-06-10T21:41:14;100134.88;;;8.74;58.51
75424;BME280;64005;55.160;36.002;2023-06-10T21:43:42;100123.78;;;8.74;58.36
75424;BME280;64005;55.160;36.002;2023-06-10T21:46:09;100124.31;;;8.76;58.46
75424;BME280;64005;55.160;36.002;2023-06-10T21:48:36;100116.56;;;8.73;58.46
75424;BME280;64005;55.160;36.002;2023-06-10T21:51:12;100123.53;;;8.71;58.63
75424;BME280;64005;55.160;36.002;2023-06-10T21:53:41;100126.09;;;8.67;58.27
75424;BME280;64005;55.160;36.002;2023-06-10T21:56:08;100128.03;;;8.67;58.30
75424;BME280;64005;55.160;36.002;2023-06-10T21:58:36;100129.16;;;8.66;58.61
75424;BME280;64005;55.160;36.002;2023-06-10T22:01:03;100123.38;;;8.62;58.24
75424;BME280;64005;55.160;36.002;2023-06-10T22:03:31;100130.06;;;8.61;58.67
75424;BME280;64005;55.160;36.002;2023-06-10T22:05:59;100123.44;;;8.57;58.89
75424;BME280;64005;55.160;36.002;2023-06-10T22:08:27;100118.47;;;8.54;59.12
75424;BME280;64005;55.160;36.002;2023-06-10T22:10:56;100127.09;;;8.53;58.72
75424;BME280;64005;55.160;36.002;2023-06-10T22:13:24;100124.94;;;8.50;58.78
75424;BME280;64005;55.160;36.002;2023-06-10T22:15:51;100126.03;;;8.49;58.93
75424;BME280;64005;55.160;36.002;2023-06-10T22:18:19;100133.81;;;8.47;58.95
75424;BME280;64005;55.160;36.002;2023-06-10T22:20:46;100121.38;;;8.44;58.92
75424;BME280;64005;55.160;36.002;2023-06-10T22:23:18;100126.69;;;8.41;59.01
75424;BME280;64005;55.160;36.002;2023-06-10T22:25:46;100021.00;;;7.71;58.62
75424;BME280;64005;55.160;36.002;2023-06-10T22:28:15;100127.03;;;8.34;58.76
75424;BME280;64005;55.160;36.002;2023-06-10T22:30:43;100132.03;;;8.32;58.74
75424;BME280;64005;55.160;36.002;2023-06-10T22:33:11;100133.72;;;8.28;58.51
75424;BME280;64005;55.160;36.002;2023-06-10T22:35:38;100134.63;;;8.23;58.95
75424;BME280;64005;55.160;36.002;2023-06-10T22:38:06;100134.91;;;8.22;59.12
75424;BME280;64005;55.160;36.002;2023-06-10T22:40:33;100134.34;;;8.20;58.63
75424;BME280;64005;55.160;36.002;2023-06-10T22:43:01;100145.44;;;8.20;58.63
75424;BME280;64005;55.160;36.002;2023-06-10T22:45:30;100132.75;;;8.14;59.25
75424;BME280;64005;55.160;36.002;2023-06-10T22:47:57;100142.72;;;8.15;58.65
75424;BME280;64005;55.160;36.002;2023-06-10T22:50:25;100139.13;;;8.14;58.54
75424;BME280;64005;55.160;36.002;2023-06-10T22:52:53;100143.00;;;8.13;59.14
75424;BME280;64005;55.160;36.002;2023-06-10T22:55:20;100145.00;;;8.08;58.77
75424;BME280;64005;55.160;36.002;2023-06-10T22:57:48;100150.28;;;8.09;59.14
75424;BME280;64005;55.160;36.002;2023-06-10T23:00:15;100151.94;;;8.10;59.26
75424;BME280;64005;55.160;36.002;2023-06-10T23:02:45;100146.13;;;8.07;58.75
75424;BME280;64005;55.160;36.002;2023-06-10T23:05:12;100134.22;;;8.06;59.13
75424;BME280;64005;55.160;36.002;2023-06-10T23:07:39;100142.53;;;8.06;58.63
75424;BME280;64005;55.160;36.002;2023-06-10T23:10:08;100138.09;;;8.05;59.12
75424;BME280;64005;55.160;36.002;2023-06-10T23:12:35;100130.78;;;7.90;58.65
75424;BME280;64005;55.160;36.002;2023-06-10T23:15:03;100141.75;;;8.01;59.15
75424;BME280;64005;55.160;36.002;2023-06-10T23:17:34;100148.69;;;7.98;59.37
75424;BME280;64005;55.160;36.002;2023-06-10T23:20:03;100144.28;;;7.97;59.51
75424;BME280;64005;55.160;36.002;2023-06-10T23:22:32;100153.47;;;7.92;59.48
75424;BME280;64005;55.160;36.002;2023-06-10T23:25:00;100145.47;;;7.91;59.50
75424;BME280;64005;55.160;36.002;2023-06-10T23:27:30;100100.91;;;7.53;59.45
75424;BME280;64005;55.160;36.002;2023-06-10T23:29:58;100150.78;;;7.82;59.56
75424;BME280;64005;55.160;36.002;2023-06-10T23:32:26;100153.34;;;7.74;59.31
75424;BME280;64005;55.160;36.002;2023-06-10T23:34:54;100158.06;;;7.73;59.51
75424;BME280;64005;55.160;36.002;2023-06-10T23:37:23;100156.16;;;7.69;59.59
75424;BME280;64005;55.160;36.002;2023-06-10T23:39:51;100159.25;;;7.62;59.77
75424;BME280;64005;55.160;36.002;2023-06-10T23:42:19;100167.03;;;7.60;60.31
75424;BME280;64005;55.160;36.002;2023-06-10T23:44:49;100167.06;;;7.55;59.36
75424;BME280;64005;55.160;36.002;2023-06-10T23:47:16;100159.09;;;7.48;60.22
75424;BME280;64005;55.160;36.002;2023-06-10T23:49:45;100170.19;;;7.43;59.74
75424;BME280;64005;55.160;36.002;2023-06-10T23:52:12;100165.81;;;7.37;60.36
75424;BME280;64005;55.160;36.002;2023-06-10T23:54:43;100165.31;;;7.30;60.34
75424;BME280;64005;55.160;36.002;2023-06-10T23:57:11;100168.38;;;7.24;60.02
75424;BME280;64005;55.160;36.002;2023-06-10T23:59:38;100172.31;;;7.17;61.19
